Forside
METAR-TAF:

METAR-TAF

Lufthavne :

Salt Lake City International Airport

Salt Lake City, Utah, USA

Breddekreds: 40-46-41N, længdekreds: 111-58-10W, højde: 1288 m

Aktuelle vejr

Denne rapport blev lavet for 26 minutter siden, kl. 22:54 UTC
Vind 5 kt fra varierende retninger
Temperatur 34°C
Fugtighed 18%
Tryk 1018 hPa
Sigt: 16.1 km
Nogle få skyer i en højde af 9500 ft
Nogle få skyer i en højde af 12000 ft
Nogle få skyer i en højde af 25000 ft

METAR: KSLC 172254Z VRB05KT 10SM FEW095 FEW120 FEW250 34/06 A3007 RMK AO2 SLP119 TCU DSNT SE T03390061

Tid: 17:20 (23:20 UTC)

Vejrudsigter

Denne rapport blev lavet for 2 timer og 14 minutter siden, kl. 21:06 UTC
Foreløbig gælder fra 17 på 21 UTC til 18 på 24 UTC
Vind 7 kt fra nordvest
Sigt: 10 km
Spredte skyer i en højde af 8000 ft
Fra 18 på 0300 UTC
Vind 6 kt fra sydsydøst
Sigt: 10 km
skyfri
Fra 18 på 1800 UTC
Vind 7 kt fra nordvest
Sigt: 10 km
skyfri

TAF: KSLC 172106Z 1721/1824 32007KT P6SM SCT080 FM180300 16006KT P6SM SKC FM181800 32007KT P6SM SKC

Vejrobservationer og prognoser fra mere end 4000 lufthavne (METAR og TAF).

De gule og røde prikker repræsenterer de meteorologiske stationer.

Flyt musen over at se navnet på stationen.

Så klik over at se vejr observationer og prognoser.

At skifte det kort: Klik på de grønne knapper med et sort kors for at zoome ind; på den grønne knap med en bindestreg for at zoome ud; eller på de grønne pile for tilstødende kort.


METAR-TAF: